Time,TemperatureF,DewpointF,PressureIn,WindDirection,WindDirectionDegrees,WindSpeedMPH,WindSpeedGustMPH,Humidity,HourlyPrecipIn,Conditions,Clouds,dailyrainin,SolarRadiationWatts/m^2,SoftwareType,DateUTC
2013-09-18 00:08:00,44.1,42.0,30.31,NNW,347,0.0,-999.0,92,-99.99,,,0.00,0,weatherlink.com 1.10,2013-09-18 04:08:00,
2013-09-18 00:23:00,44.2,42.0,30.30,NNW,347,0.0,-999.0,92,-99.99,,,0.00,0,weatherlink.com 1.10,2013-09-18 04:23:00,
2013-09-18 00:38:00,44.2,42.0,30.30,NNW,347,0.0,-999.0,92,-99.99,,,0.00,0,weatherlink.com 1.10,2013-09-18 04:38:00,
2013-09-18 00:53:00,44.2,42.0,30.30,NNW,347,0.0,-999.0,92,-99.99,,,0.00,0,weatherlink.com 1.10,2013-09-18 04:53:00,
2013-09-18 01:08:00,44.0,42.0,30.30,NNW,347,0.0,-999.0,92,-99.99,,,0.00,0,weatherlink.com 1.10,2013-09-18 05:08:00,
2013-09-18 01:23:00,44.0,42.0,30.30,NNW,347,0.0,-999.0,92,-99.99,,,0.00,0,weatherlink.com 1.10,2013-09-18 05:23:00,
2013-09-18 01:38:00,44.0,42.0,30.30,NNW,347,0.0,-999.0,92,-99.99,,,0.00,0,weatherlink.com 1.10,2013-09-18 05:38:00,
2013-09-18 01:53:00,43.9,42.0,30.29,NNW,347,0.0,-999.0,93,-99.99,,,0.00,0,weatherlink.com 1.10,2013-09-18 05:53:00,
2013-09-18 02:08:00,43.9,42.0,30.29,NNW,347,0.0,-999.0,93,-99.99,,,0.00,0,weatherlink.com 1.10,2013-09-18 06:08:00,
2013-09-18 02:23:00,43.8,42.0,30.29,NNW,347,0.0,-999.0,93,-99.99,,,0.00,0,weatherlink.com 1.10,2013-09-18 06:23:00,
2013-09-18 02:38:00,43.7,42.0,30.28,NNW,347,0.0,-999.0,93,-99.99,,,0.00,0,weatherlink.com 1.10,2013-09-18 06:38:00,
2013-09-18 02:53:00,43.6,42.0,30.29,NNW,347,0.0,-999.0,93,-99.99,,,0.00,0,weatherlink.com 1.10,2013-09-18 06:53:00,
2013-09-18 03:08:00,43.5,42.0,30.29,NNW,347,0.0,-999.0,93,-99.99,,,0.00,0,weatherlink.com 1.10,2013-09-18 07:08:00,
2013-09-18 03:23:00,43.4,42.0,30.28,NNW,347,0.0,-999.0,93,-99.99,,,0.00,0,weatherlink.com 1.10,2013-09-18 07:23:00,
2013-09-18 03:38:00,43.4,42.0,30.28,NNW,347,0.0,-999.0,93,-99.99,,,0.00,0,weatherlink.com 1.10,2013-09-18 07:38:00,
2013-09-18 03:53:00,43.3,42.0,30.28,NNW,347,0.0,-999.0,93,-99.99,,,0.00,0,weatherlink.com 1.10,2013-09-18 07:53:00,
2013-09-18 04:08:00,43.3,42.0,30.27,NNW,347,0.0,-999.0,93,-99.99,,,0.00,0,weatherlink.com 1.10,2013-09-18 08:08:00,
2013-09-18 04:23:00,43.2,42.0,30.27,NNW,347,0.0,-999.0,94,-99.99,,,0.00,0,weatherlink.com 1.10,2013-09-18 08:23:00,
2013-09-18 04:38:00,43.2,41.0,30.27,NNW,347,0.0,-999.0,93,-99.99,,,0.00,0,weatherlink.com 1.10,2013-09-18 08:38:00,
2013-09-18 04:53:00,43.2,42.0,30.27,NNW,347,0.0,-999.0,94,-99.99,,,0.00,0,weatherlink.com 1.10,2013-09-18 08:53:00,
2013-09-18 05:08:00,43.3,42.0,30.27,NNW,347,0.0,-999.0,94,-99.99,,,0.00,0,weatherlink.com 1.10,2013-09-18 09:08:00,
2013-09-18 05:23:00,43.4,42.0,30.27,NNW,347,0.0,-999.0,94,-99.99,,,0.00,0,weatherlink.com 1.10,2013-09-18 09:23:00,
2013-09-18 05:38:00,43.3,42.0,30.28,NNW,347,0.0,-999.0,94,-99.99,,,0.00,0,weatherlink.com 1.10,2013-09-18 09:38:00,
2013-09-18 05:53:00,43.2,42.0,30.28,NNW,347,0.0,-999.0,94,-99.99,,,0.00,0,weatherlink.com 1.10,2013-09-18 09:53:00,
2013-09-18 06:08:00,43.1,42.0,30.28,NNW,347,0.0,-999.0,94,-99.99,,,0.00,0,weatherlink.com 1.10,2013-09-18 10:08:00,
2013-09-18 06:23:00,42.9,41.0,30.28,NNW,347,0.0,-999.0,94,-99.99,,,0.00,0,weatherlink.com 1.10,2013-09-18 10:23:00,
2013-09-18 06:38:00,42.8,41.0,30.28,NNW,347,0.0,-999.0,94,-99.99,,,0.00,5,weatherlink.com 1.10,2013-09-18 10:38:00,
2013-09-18 06:53:00,42.8,41.0,30.29,NNW,347,0.0,-999.0,94,-99.99,,,0.00,11,weatherlink.com 1.10,2013-09-18 10:53:00,
2013-09-18 07:08:00,42.8,41.0,30.29,NNW,347,0.0,-999.0,94,-99.99,,,0.00,14,weatherlink.com 1.10,2013-09-18 11:08:00,
2013-09-18 07:23:00,43.0,41.0,30.29,NNW,347,0.0,-999.0,94,-99.99,,,0.00,19,weatherlink.com 1.10,2013-09-18 11:23:00,
2013-09-18 07:38:00,43.5,42.0,30.29,NNW,347,0.0,-999.0,95,-99.99,,,0.00,23,weatherlink.com 1.10,2013-09-18 11:38:00,
2013-09-18 07:53:00,44.2,43.0,30.29,NNW,347,0.0,-999.0,95,-99.99,,,0.00,28,weatherlink.com 1.10,2013-09-18 11:53:00,
2013-09-18 08:08:00,45.2,44.0,30.29,NNW,347,0.0,-999.0,95,-99.99,,,0.00,28,weatherlink.com 1.10,2013-09-18 12:08:00,
2013-09-18 08:24:00,46.7,46.0,30.29,NNW,347,0.0,-999.0,96,-99.99,,,0.00,32,weatherlink.com 1.10,2013-09-18 12:24:00,
2013-09-18 08:39:00,48.3,47.0,30.28,NNW,347,0.0,-999.0,95,-99.99,,,0.00,35,weatherlink.com 1.10,2013-09-18 12:39:00,
2013-09-18 08:54:00,50.1,48.0,30.29,NNW,347,0.0,-999.0,93,-99.99,,,0.00,37,weatherlink.com 1.10,2013-09-18 12:54:00,
2013-09-18 09:09:00,52.1,49.0,30.28,NNW,347,0.0,-999.0,88,-99.99,,,0.00,46,weatherlink.com 1.10,2013-09-18 13:09:00,
2013-09-18 09:24:00,54.2,49.0,30.27,NNW,347,0.0,-999.0,82,-99.99,,,0.00,46,weatherlink.com 1.10,2013-09-18 13:24:00,
2013-09-18 09:39:00,56.3,49.0,30.27,NNW,347,0.0,-999.0,77,-99.99,,,0.00,40,weatherlink.com 1.10,2013-09-18 13:39:00,
2013-09-18 09:54:00,57.8,49.0,30.27,NNW,347,0.0,-999.0,72,-99.99,,,0.00,47,weatherlink.com 1.10,2013-09-18 13:54:00,
2013-09-18 10:09:00,59.7,49.0,30.27,North,350,5.0,-999.0,67,-99.99,,,0.00,584,weatherlink.com 1.10,2013-09-18 14:09:00,
2013-09-18 10:24:00,61.4,47.0,30.27,North,350,2.0,-999.0,60,-99.99,,,0.00,621,weatherlink.com 1.10,2013-09-18 14:24:00,
2013-09-18 10:39:00,62.9,46.0,30.26,North,350,0.0,-999.0,55,-99.99,,,0.00,647,weatherlink.com 1.10,2013-09-18 14:39:00,
2013-09-18 10:54:00,63.9,46.0,30.25,North,5,1.0,-999.0,52,-99.99,,,0.00,673,weatherlink.com 1.10,2013-09-18 14:54:00,
2013-09-18 11:09:00,64.8,46.0,30.25,North,355,7.0,-999.0,50,-99.99,,,0.00,698,weatherlink.com 1.10,2013-09-18 15:09:00,
2013-09-18 11:24:00,65.9,46.0,30.24,NNW,336,0.0,-999.0,49,-99.99,,,0.00,717,weatherlink.com 1.10,2013-09-18 15:24:00,
2013-09-18 11:39:00,66.8,45.0,30.24,NNW,342,0.0,-999.0,46,-99.99,,,0.00,735,weatherlink.com 1.10,2013-09-18 15:39:00,
2013-09-18 11:55:00,67.7,44.0,30.24,NNW,343,0.0,-999.0,42,-99.99,,,0.00,749,weatherlink.com 1.10,2013-09-18 15:55:00,
2013-09-18 12:10:00,68.6,43.0,30.23,NNW,343,0.0,-999.0,40,-99.99,,,0.00,756,weatherlink.com 1.10,2013-09-18 16:10:00,
2013-09-18 12:25:00,69.0,43.0,30.23,NNW,348,0.0,-999.0,39,-99.99,,,0.00,761,weatherlink.com 1.10,2013-09-18 16:25:00,
2013-09-18 12:40:00,69.5,43.0,30.23,North,349,1.0,-999.0,39,-99.99,,,0.00,765,weatherlink.com 1.10,2013-09-18 16:40:00,
2013-09-18 12:55:00,70.2,45.0,30.21,North,355,2.0,-999.0,40,-99.99,,,0.00,763,weatherlink.com 1.10,2013-09-18 16:55:00,
2013-09-18 13:10:00,70.8,43.0,30.21,North,355,0.0,-999.0,37,-99.99,,,0.00,758,weatherlink.com 1.10,2013-09-18 17:10:00,
2013-09-18 13:25:00,71.3,44.0,30.20,North,355,0.0,-999.0,38,-99.99,,,0.00,751,weatherlink.com 1.10,2013-09-18 17:25:00,
2013-09-18 13:40:00,71.5,43.0,30.19,North,355,0.0,-999.0,36,-99.99,,,0.00,740,weatherlink.com 1.10,2013-09-18 17:40:00,
2013-09-18 13:55:00,72.2,44.0,30.19,North,349,0.0,-999.0,36,-99.99,,,0.00,722,weatherlink.com 1.10,2013-09-18 17:55:00,
2013-09-18 14:10:00,72.7,48.0,30.18,North,349,0.0,-999.0,42,-99.99,,,0.00,703,weatherlink.com 1.10,2013-09-18 18:10:00,
2013-09-18 14:25:00,72.9,50.0,30.18,South,172,0.0,-999.0,45,-99.99,,,0.00,682,weatherlink.com 1.10,2013-09-18 18:25:00,
2013-09-18 14:40:00,72.7,46.0,30.16,North,5,0.0,-999.0,38,-99.99,,,0.00,654,weatherlink.com 1.10,2013-09-18 18:40:00,
2013-09-18 14:55:00,71.5,52.0,30.16,SSW,196,4.0,-999.0,50,-99.99,,,0.00,617,weatherlink.com 1.10,2013-09-18 18:55:00,
2013-09-18 15:10:00,70.2,53.0,30.16,South,169,0.0,-999.0,54,-99.99,,,0.00,125,weatherlink.com 1.10,2013-09-18 19:10:00,
2013-09-18 15:25:00,69.7,52.0,30.15,SE,134,0.0,-999.0,54,-99.99,,,0.00,79,weatherlink.com 1.10,2013-09-18 19:25:00,
2013-09-18 15:40:00,69.5,51.0,30.14,SE,131,0.0,-999.0,52,-99.99,,,0.00,44,weatherlink.com 1.10,2013-09-18 19:40:00,
2013-09-18 15:55:00,69.7,50.0,30.14,West,263,0.0,-999.0,50,-99.99,,,0.00,47,weatherlink.com 1.10,2013-09-18 19:55:00,
2013-09-18 16:11:00,69.9,49.0,30.14,SW,226,0.0,-999.0,47,-99.99,,,0.00,86,weatherlink.com 1.10,2013-09-18 20:11:00,
2013-09-18 16:25:00,70.6,48.0,30.13,WNW,296,0.0,-999.0,44,-99.99,,,0.00,37,weatherlink.com 1.10,2013-09-18 20:25:00,
2013-09-18 16:40:00,71.0,49.0,30.14,ESE,120,0.0,-999.0,46,-99.99,,,0.00,37,weatherlink.com 1.10,2013-09-18 20:40:00,
2013-09-18 16:55:00,71.3,48.0,30.13,NW,304,0.0,-999.0,44,-99.99,,,0.00,33,weatherlink.com 1.10,2013-09-18 20:55:00,
2013-09-18 17:10:00,71.2,48.0,30.13,West,262,0.0,-999.0,44,-99.99,,,0.00,33,weatherlink.com 1.10,2013-09-18 21:10:00,
2013-09-18 17:25:00,71.2,48.0,30.13,SW,217,1.0,-999.0,44,-99.99,,,0.00,30,weatherlink.com 1.10,2013-09-18 21:25:00,
2013-09-18 17:40:00,70.9,50.0,30.13,SW,217,0.0,-999.0,47,-99.99,,,0.00,26,weatherlink.com 1.10,2013-09-18 21:40:00,
2013-09-18 17:55:00,70.4,50.0,30.13,SE,146,0.0,-999.0,48,-99.99,,,0.00,21,weatherlink.com 1.10,2013-09-18 21:55:00,
2013-09-18 18:10:00,69.2,50.0,30.12,SSE,163,0.0,-999.0,50,-99.99,,,0.00,18,weatherlink.com 1.10,2013-09-18 22:10:00,
2013-09-18 18:25:00,68.0,50.0,30.12,SE,134,0.0,-999.0,53,-99.99,,,0.00,11,weatherlink.com 1.10,2013-09-18 22:25:00,
2013-09-18 18:40:00,67.2,50.0,30.12,NE,46,0.0,-999.0,54,-99.99,,,0.00,5,weatherlink.com 1.10,2013-09-18 22:40:00,
2013-09-18 18:55:00,66.5,50.0,30.13,ESE,115,0.0,-999.0,56,-99.99,,,0.00,0,weatherlink.com 1.10,2013-09-18 22:55:00,
2013-09-18 19:10:00,65.6,50.0,30.13,ESE,115,0.0,-999.0,58,-99.99,,,0.00,0,weatherlink.com 1.10,2013-09-18 23:10:00,
2013-09-18 19:25:00,64.3,50.0,30.13,ESE,123,0.0,-999.0,61,-99.99,,,0.00,0,weatherlink.com 1.10,2013-09-18 23:25:00,
2013-09-18 19:40:00,63.3,50.0,30.14,ESE,122,0.0,-999.0,62,-99.99,,,0.00,0,weatherlink.com 1.10,2013-09-18 23:40:00,
2013-09-18 19:55:00,62.5,50.0,30.14,South,174,0.0,-999.0,64,-99.99,,,0.00,0,weatherlink.com 1.10,2013-09-18 23:55:00,
2013-09-18 20:10:00,61.7,50.0,30.14,SSE,166,0.0,-999.0,66,-99.99,,,0.00,0,weatherlink.com 1.10,2013-09-19 00:10:00,
2013-09-18 20:26:00,61.0,50.0,30.14,SSE,165,0.0,-999.0,68,-99.99,,,0.00,0,weatherlink.com 1.10,2013-09-19 00:26:00,
2013-09-18 20:40:00,60.3,50.0,30.14,South,180,0.0,-999.0,70,-99.99,,,0.00,0,weatherlink.com 1.10,2013-09-19 00:40:00,
2013-09-18 20:55:00,59.8,51.0,30.13,SSE,167,0.0,-999.0,72,-99.99,,,0.00,0,weatherlink.com 1.10,2013-09-19 00:55:00,
2013-09-18 21:10:00,59.4,51.0,30.13,SSE,156,0.0,-999.0,73,-99.99,,,0.00,0,weatherlink.com 1.10,2013-09-19 01:10:00,
2013-09-18 21:25:00,59.2,51.0,30.14,SSW,211,0.0,-999.0,75,-99.99,,,0.00,0,weatherlink.com 1.10,2013-09-19 01:25:00,
2013-09-18 21:40:00,58.9,51.0,30.14,South,189,0.0,-999.0,75,-99.99,,,0.00,0,weatherlink.com 1.10,2013-09-19 01:40:00,
2013-09-18 21:55:00,58.6,51.0,30.14,SE,145,0.0,-999.0,75,-99.99,,,0.00,0,weatherlink.com 1.10,2013-09-19 01:55:00,
2013-09-18 22:11:00,58.3,50.0,30.14,SE,132,0.0,-999.0,75,-99.99,,,0.00,0,weatherlink.com 1.10,2013-09-19 02:11:00,
2013-09-18 22:25:00,58.1,50.0,30.14,South,191,0.0,-999.0,75,-99.99,,,0.00,0,weatherlink.com 1.10,2013-09-19 02:25:00,
2013-09-18 22:40:00,57.9,50.0,30.14,NW,313,0.0,-999.0,75,-99.99,,,0.00,0,weatherlink.com 1.10,2013-09-19 02:40:00,
2013-09-18 22:55:00,57.7,49.0,30.14,NW,308,0.0,-999.0,74,-99.99,,,0.00,0,weatherlink.com 1.10,2013-09-19 02:55:00,
2013-09-18 23:10:00,57.5,49.0,30.14,SSW,192,0.0,-999.0,74,-99.99,,,0.00,0,weatherlink.com 1.10,2013-09-19 03:10:00,
2013-09-18 23:25:00,57.2,49.0,30.13,SSW,192,0.0,-999.0,74,-99.99,,,0.00,0,weatherlink.com 1.10,2013-09-19 03:25:00,
2013-09-18 23:40:00,56.8,49.0,30.13,SSW,192,0.0,-999.0,75,-99.99,,,0.00,0,weatherlink.com 1.10,2013-09-19 03:40:00,
2013-09-18 23:55:00,56.4,49.0,30.12,SSW,194,0.0,-999.0,75,-99.99,,,0.00,0,weatherlink.com 1.10,2013-09-19 03:55:00,